sensor_id;sensor_type;location;lat;lon;timestamp;pressure;altitude;pressure_sealevel;temperature;humidity
59987;BME280;46181;51.498;5.392;2023-02-13T00:02:20;103623.8;;;11.89;57.30762
59987;BME280;46181;51.498;5.392;2023-02-13T00:06:50;103618.3;;;11.9;57.35547
59987;BME280;46181;51.498;5.392;2023-02-13T00:11:20;103615;;;11.95;57.34961
59987;BME280;46181;51.498;5.392;2023-02-13T00:15:57;103613.1;;;12;57.34473
59987;BME280;46181;51.498;5.392;2023-02-13T00:20:21;103609.2;;;12;57.36816
59987;BME280;46181;51.498;5.392;2023-02-13T00:24:50;103600.1;;;12.06;57.42188
59987;BME280;46181;51.498;5.392;2023-02-13T00:29:20;103606.5;;;12.07;57.43457
59987;BME280;46181;51.498;5.392;2023-02-13T00:33:50;103604.4;;;12.08;57.42285
59987;BME280;46181;51.498;5.392;2023-02-13T00:38:20;103603;;;12.1;57.44922
59987;BME280;46181;51.498;5.392;2023-02-13T00:42:50;103596.6;;;12.09;57.51563
59987;BME280;46181;51.498;5.392;2023-02-13T00:47:20;103593.3;;;12.12;57.55273
59987;BME280;46181;51.498;5.392;2023-02-13T00:51:50;103600.3;;;12.14;57.52148
59987;BME280;46181;51.498;5.392;2023-02-13T00:56:20;103597.6;;;12.15;57.55664
59987;BME280;46181;51.498;5.392;2023-02-13T01:00:50;103597.8;;;12.15;57.55566
59987;BME280;46181;51.498;5.392;2023-02-13T01:05:20;103600.2;;;12.1;57.53809
59987;BME280;46181;51.498;5.392;2023-02-13T01:09:50;103601.5;;;12.07;57.6377
59987;BME280;46181;51.498;5.392;2023-02-13T01:14:20;103599.9;;;11.97;57.70215
59987;BME280;46181;51.498;5.392;2023-02-13T01:18:50;103599;;;11.94;57.87988
59987;BME280;46181;51.498;5.392;2023-02-13T01:23:20;103595.4;;;11.91;57.93262
59987;BME280;46181;51.498;5.392;2023-02-13T01:27:50;103590;;;11.87;58.02832
59987;BME280;46181;51.498;5.392;2023-02-13T01:32:20;103587.5;;;11.8;58.12109
59987;BME280;46181;51.498;5.392;2023-02-13T01:36:50;103592.4;;;11.78;58.23047
59987;BME280;46181;51.498;5.392;2023-02-13T01:41:20;103587.6;;;11.73;58.32617
59987;BME280;46181;51.498;5.392;2023-02-13T01:45:50;103590.3;;;11.68;58.46582
59987;BME280;46181;51.498;5.392;2023-02-13T01:50:23;103578.4;;;11.56;58.47168
59987;BME280;46181;51.498;5.392;2023-02-13T01:54:50;103571.1;;;11.44;58.5459
59987;BME280;46181;51.498;5.392;2023-02-13T01:59:23;103572.3;;;11.27;58.83887
59987;BME280;46181;51.498;5.392;2023-02-13T02:03:51;103572.7;;;11.14;58.99121
59987;BME280;46181;51.498;5.392;2023-02-13T02:08:21;103580.2;;;11.02;59.22266
59987;BME280;46181;51.498;5.392;2023-02-13T02:12:53;103578.8;;;10.89;59.38477
59987;BME280;46181;51.498;5.392;2023-02-13T02:17:20;103580.9;;;10.82;59.5
59987;BME280;46181;51.498;5.392;2023-02-13T02:26:48;103570.3;;;10.44;60.31445
59987;BME280;46181;51.498;5.392;2023-02-13T02:35:29;103573.5;;;10.36;60.2793
59987;BME280;46181;51.498;5.392;2023-02-13T02:39:58;103565;;;10.32;60.33105
59987;BME280;46181;51.498;5.392;2023-02-13T02:44:29;103565.2;;;10.25;60.4668
59987;BME280;46181;51.498;5.392;2023-02-13T02:48:53;103560.4;;;10.22;60.44043
59987;BME280;46181;51.498;5.392;2023-02-13T02:53:29;103562.6;;;10.12;60.67285
59987;BME280;46181;51.498;5.392;2023-02-13T02:57:54;103557;;;10.07;60.62012
59987;BME280;46181;51.498;5.392;2023-02-13T03:02:21;103562;;;10.02;60.625
59987;BME280;46181;51.498;5.392;2023-02-13T03:06:53;103558.3;;;9.92;60.78125
59987;BME280;46181;51.498;5.392;2023-02-13T03:11:20;103557.7;;;9.9;60.78906
59987;BME280;46181;51.498;5.392;2023-02-13T03:15:52;103556.3;;;9.82;60.88965
59987;BME280;46181;51.498;5.392;2023-02-13T03:20:27;103552.3;;;9.7;60.83984
59987;BME280;46181;51.498;5.392;2023-02-13T03:24:55;103553.9;;;9.63;60.80859
59987;BME280;46181;51.498;5.392;2023-02-13T03:29:25;103550.9;;;9.55;60.7959
59987;BME280;46181;51.498;5.392;2023-02-13T03:34:01;103550.3;;;9.4;61.00977
59987;BME280;46181;51.498;5.392;2023-02-13T03:38:24;103555.1;;;9.37;60.91797
59987;BME280;46181;51.498;5.392;2023-02-13T03:42:54;103563.9;;;9.32;60.8877
59987;BME280;46181;51.498;5.392;2023-02-13T03:47:22;103566.4;;;9.26;60.93555
59987;BME280;46181;51.498;5.392;2023-02-13T03:51:52;103570.8;;;9.2;60.9707
59987;BME280;46181;51.498;5.392;2023-02-13T03:56:21;103568.1;;;9.13;60.98633
59987;BME280;46181;51.498;5.392;2023-02-13T04:00:53;103573.9;;;9.07;61.02051
59987;BME280;46181;51.498;5.392;2023-02-13T04:05:23;103578.1;;;8.99;61.04297
59987;BME280;46181;51.498;5.392;2023-02-13T04:09:50;103579;;;8.93;61.04688
59987;BME280;46181;51.498;5.392;2023-02-13T04:14:24;103576.4;;;8.83;61.06641
59987;BME280;46181;51.498;5.392;2023-02-13T04:18:51;103570.4;;;8.77;61.0459
59987;BME280;46181;51.498;5.392;2023-02-13T04:23:20;103565;;;8.7;60.99121
59987;BME280;46181;51.498;5.392;2023-02-13T04:27:50;103568.1;;;8.62;61.06934
59987;BME280;46181;51.498;5.392;2023-02-13T04:32:21;103561.6;;;8.55;61.21582
59987;BME280;46181;51.498;5.392;2023-02-13T04:36:50;103562.4;;;8.56;61.33008
59987;BME280;46181;51.498;5.392;2023-02-13T04:41:20;103563.5;;;8.58;61.37695
59987;BME280;46181;51.498;5.392;2023-02-13T04:45:50;103564.1;;;8.55;61.41797
59987;BME280;46181;51.498;5.392;2023-02-13T04:50:20;103565.4;;;8.54;61.34863
59987;BME280;46181;51.498;5.392;2023-02-13T04:54:50;103565.1;;;8.47;61.28418
59987;BME280;46181;51.498;5.392;2023-02-13T04:59:20;103559.1;;;8.37;61.31348
59987;BME280;46181;51.498;5.392;2023-02-13T05:03:50;103557.8;;;8.32;61.28516
59987;BME280;46181;51.498;5.392;2023-02-13T05:08:20;103555.7;;;8.25;61.33105
59987;BME280;46181;51.498;5.392;2023-02-13T05:12:50;103551.7;;;8.2;61.34668
59987;BME280;46181;51.498;5.392;2023-02-13T05:17:20;103552.7;;;8.17;61.63281
59987;BME280;46181;51.498;5.392;2023-02-13T05:21:50;103553.3;;;8.18;61.69043
59987;BME280;46181;51.498;5.392;2023-02-13T05:26:20;103552.6;;;8.18;61.79102
59987;BME280;46181;51.498;5.392;2023-02-13T05:30:50;103552.9;;;8.2;61.64844
59987;BME280;46181;51.498;5.392;2023-02-13T05:35:20;103554.5;;;8.18;61.64648
59987;BME280;46181;51.498;5.392;2023-02-13T05:39:50;103558.9;;;8.15;61.72949
59987;BME280;46181;51.498;5.392;2023-02-13T05:44:21;103562.1;;;8.12;61.80469
59987;BME280;46181;51.498;5.392;2023-02-13T05:48:50;103562.6;;;8.05;61.53906
59987;BME280;46181;51.498;5.392;2023-02-13T05:53:20;103558.3;;;7.96;61.53613
59987;BME280;46181;51.498;5.392;2023-02-13T05:57:51;103558.6;;;7.86;61.57617
59987;BME280;46181;51.498;5.392;2023-02-13T06:02:20;103558.6;;;7.77;61.52148
59987;BME280;46181;51.498;5.392;2023-02-13T06:06:50;103552.6;;;7.7;61.61035
59987;BME280;46181;51.498;5.392;2023-02-13T06:11:20;103552.5;;;7.63;61.58887
59987;BME280;46181;51.498;5.392;2023-02-13T06:15:50;103553.2;;;7.57;61.69336
59987;BME280;46181;51.498;5.392;2023-02-13T06:20:21;103547.7;;;7.48;61.71387
59987;BME280;46181;51.498;5.392;2023-02-13T06:24:50;103543.7;;;7.43;61.76172
59987;BME280;46181;51.498;5.392;2023-02-13T06:29:20;103549.3;;;7.42;61.76074
59987;BME280;46181;51.498;5.392;2023-02-13T06:33:50;103551.1;;;7.36;61.71973
59987;BME280;46181;51.498;5.392;2023-02-13T06:38:20;103557.9;;;7.33;61.8584
59987;BME280;46181;51.498;5.392;2023-02-13T06:42:50;103563.5;;;7.32;61.90234
59987;BME280;46181;51.498;5.392;2023-02-13T06:47:20;103562.4;;;7.26;61.83789
59987;BME280;46181;51.498;5.392;2023-02-13T06:51:50;103564.1;;;7.23;61.86719
59987;BME280;46181;51.498;5.392;2023-02-13T06:56:20;103565.4;;;7.2;61.83984
59987;BME280;46181;51.498;5.392;2023-02-13T07:00:50;103567.3;;;7.19;61.82715
59987;BME280;46181;51.498;5.392;2023-02-13T07:05:21;103572;;;7.16;61.86816
59987;BME280;46181;51.498;5.392;2023-02-13T07:09:50;103576;;;7.14;61.81055
59987;BME280;46181;51.498;5.392;2023-02-13T07:14:20;103572.4;;;7.12;61.8623
59987;BME280;46181;51.498;5.392;2023-02-13T07:18:50;103577.4;;;7.13;61.87598
59987;BME280;46181;51.498;5.392;2023-02-13T07:23:20;103580.8;;;7.16;61.92383
59987;BME280;46181;51.498;5.392;2023-02-13T07:27:50;103574.6;;;7.22;61.9873
59987;BME280;46181;51.498;5.392;2023-02-13T07:32:20;103576.9;;;7.29;62.05469
59987;BME280;46181;51.498;5.392;2023-02-13T07:36:50;103574.7;;;7.4;62.01465
59987;BME280;46181;51.498;5.392;2023-02-13T07:41:20;103570.4;;;7.53;62.08984
59987;BME280;46181;51.498;5.392;2023-02-13T07:45:50;103573.8;;;7.67;62.03125
59987;BME280;46181;51.498;5.392;2023-02-13T07:50:21;103581;;;7.82;62.05273
59987;BME280;46181;51.498;5.392;2023-02-13T07:54:50;103574.3;;;7.98;62.04102
59987;BME280;46181;51.498;5.392;2023-02-13T07:59:20;103580.9;;;8.15;61.99707
59987;BME280;46181;51.498;5.392;2023-02-13T08:03:51;103586.2;;;8.31;62.01074
59987;BME280;46181;51.498;5.392;2023-02-13T08:08:20;103590;;;8.49;61.94727
59987;BME280;46181;51.498;5.392;2023-02-13T08:12:50;103593.4;;;8.69;61.88477
59987;BME280;46181;51.498;5.392;2023-02-13T08:17:20;103598.8;;;8.84;61.84082
59987;BME280;46181;51.498;5.392;2023-02-13T08:21:50;103606.8;;;9.02;61.74219
59987;BME280;46181;51.498;5.392;2023-02-13T08:26:20;103609.8;;;9.23;61.61426
59987;BME280;46181;51.498;5.392;2023-02-13T08:30:50;103607.7;;;9.37;61.5791
59987;BME280;46181;51.498;5.392;2023-02-13T08:35:20;103615.7;;;9.54;61.55762
59987;BME280;46181;51.498;5.392;2023-02-13T08:39:50;103614.3;;;9.72;61.49316
59987;BME280;46181;51.498;5.392;2023-02-13T08:48:50;103620.1;;;10.03;61.32422
59987;BME280;46181;51.498;5.392;2023-02-13T08:53:20;103619.8;;;10.2;61.32617
59987;BME280;46181;51.498;5.392;2023-02-13T08:57:50;103623.5;;;10.35;61.24512
59987;BME280;46181;51.498;5.392;2023-02-13T09:02:21;103624.5;;;10.5;61.22168
59987;BME280;46181;51.498;5.392;2023-02-13T09:06:50;103614.1;;;10.66;60.99609
59987;BME280;46181;51.498;5.392;2023-02-13T09:11:20;103616.7;;;10.79;60.99219
59987;BME280;46181;51.498;5.392;2023-02-13T09:15:50;103620.4;;;10.92;60.90918
59987;BME280;46181;51.498;5.392;2023-02-13T09:20:21;103621.4;;;11.09;60.79688
59987;BME280;46181;51.498;5.392;2023-02-13T09:24:50;103618.7;;;11.22;60.7373
59987;BME280;46181;51.498;5.392;2023-02-13T09:29:20;103619.5;;;11.39;60.61426
59987;BME280;46181;51.498;5.392;2023-02-13T09:33:50;103622;;;11.54;60.4209
59987;BME280;46181;51.498;5.392;2023-02-13T09:38:20;103620.9;;;11.71;60.28613
59987;BME280;46181;51.498;5.392;2023-02-13T09:42:51;103620.3;;;11.84;60.09961
59987;BME280;46181;51.498;5.392;2023-02-13T09:47:25;103624.5;;;11.96;59.8916
59987;BME280;46181;51.498;5.392;2023-02-13T09:51:52;103622.4;;;12.1;59.69531
59987;BME280;46181;51.498;5.392;2023-02-13T09:56:26;103620.2;;;12.18;59.53809
59987;BME280;46181;51.498;5.392;2023-02-13T10:00:52;103622.5;;;12.32;59.33105
59987;BME280;46181;51.498;5.392;2023-02-13T10:05:34;103618.5;;;12.42;59.2207
59987;BME280;46181;51.498;5.392;2023-02-13T10:09:57;103628.1;;;12.47;58.72852
59987;BME280;46181;51.498;5.392;2023-02-13T10:14:24;103627.7;;;12.56;58.65039
59987;BME280;46181;51.498;5.392;2023-02-13T10:18:56;103631.9;;;12.59;58.40723
59987;BME280;46181;51.498;5.392;2023-02-13T10:23:27;103630.6;;;12.64;58.15234
59987;BME280;46181;51.498;5.392;2023-02-13T10:27:53;103617.8;;;12.69;57.98828
59987;BME280;46181;51.498;5.392;2023-02-13T10:32:24;103618.2;;;12.74;57.88281
59987;BME280;46181;51.498;5.392;2023-02-13T10:36:52;103617.7;;;12.83;57.71484
59987;BME280;46181;51.498;5.392;2023-02-13T10:41:42;103607.4;;;12.76;57.9541
59987;BME280;46181;51.498;5.392;2023-02-13T10:46:06;103611.3;;;12.86;57.77441
59987;BME280;46181;51.498;5.392;2023-02-13T10:50:27;103605.5;;;13;57.63379
59987;BME280;46181;51.498;5.392;2023-02-13T10:55:09;103607.3;;;13.12;57.48047
59987;BME280;46181;51.498;5.392;2023-02-13T10:59:32;103604.1;;;13.19;56.81055
59987;BME280;46181;51.498;5.392;2023-02-13T11:03:59;103602.9;;;13.33;56.54492
59987;BME280;46181;51.498;5.392;2023-02-13T11:08:25;103599.4;;;13.36;56.31152
59987;BME280;46181;51.498;5.392;2023-02-13T11:12:50;103592.1;;;13.55;56.16504
59987;BME280;46181;51.498;5.392;2023-02-13T11:17:25;103587.9;;;13.62;55.81055
59987;BME280;46181;51.498;5.392;2023-02-13T11:21:52;103578.6;;;13.69;55.69629
59987;BME280;46181;51.498;5.392;2023-02-13T11:26:25;103570.2;;;13.74;55.54297
59987;BME280;46181;51.498;5.392;2023-02-13T11:30:50;103561.9;;;13.82;55.37109
59987;BME280;46181;51.498;5.392;2023-02-13T11:35:38;103564.2;;;13.79;55.28711
59987;BME280;46181;51.498;5.392;2023-02-13T11:39:52;103551.9;;;13.87;54.96875
59987;BME280;46181;51.498;5.392;2023-02-13T11:44:32;103555.9;;;13.84;54.86328
59987;BME280;46181;51.498;5.392;2023-02-13T11:49:03;103553.6;;;14.03;54.55566
59987;BME280;46181;51.498;5.392;2023-02-13T11:53:27;103552;;;14.03;54.31836
59987;BME280;46181;51.498;5.392;2023-02-13T11:57:54;103546.6;;;14.14;54.15039
59987;BME280;46181;51.498;5.392;2023-02-13T12:02:31;103545.4;;;14.13;54.03516
59987;BME280;46181;51.498;5.392;2023-02-13T12:07:11;103539;;;14.18;53.99609
59987;BME280;46181;51.498;5.392;2023-02-13T12:11:27;103536.5;;;14.37;53.59766
59987;BME280;46181;51.498;5.392;2023-02-13T12:15:54;103533.6;;;14.48;53.22559
59987;BME280;46181;51.498;5.392;2023-02-13T12:20:23;103531.4;;;14.54;52.95996
59987;BME280;46181;51.498;5.392;2023-02-13T12:25:01;103525.3;;;14.56;52.52832
59987;BME280;46181;51.498;5.392;2023-02-13T12:29:37;103517.6;;;14.65;52.46094
59987;BME280;46181;51.498;5.392;2023-02-13T12:38:32;103506.2;;;14.86;52.29199
59987;BME280;46181;51.498;5.392;2023-02-13T12:43:00;103506.2;;;14.97;51.91797
59987;BME280;46181;51.498;5.392;2023-02-13T12:47:25;103497.1;;;15.03;51.92578
59987;BME280;46181;51.498;5.392;2023-02-13T12:51:59;103489.8;;;15.08;51.87402
59987;BME280;46181;51.498;5.392;2023-02-13T12:56:35;103481.5;;;15.13;51.75391
59987;BME280;46181;51.498;5.392;2023-02-13T13:00:56;103482.2;;;15.25;51.20996
59987;BME280;46181;51.498;5.392;2023-02-13T13:05:35;103479.7;;;15.22;51.20605
59987;BME280;46181;51.498;5.392;2023-02-13T13:10:04;103475.5;;;15.3;51.16992
59987;BME280;46181;51.498;5.392;2023-02-13T13:14:29;103471.7;;;15.35;50.90234
59987;BME280;46181;51.498;5.392;2023-02-13T13:19:02;103469.3;;;15.38;50.89355
59987;BME280;46181;51.498;5.392;2023-02-13T13:23:23;103467.1;;;15.44;50.65039
59987;BME280;46181;51.498;5.392;2023-02-13T13:27:52;103462.9;;;15.51;50.40723
59987;BME280;46181;51.498;5.392;2023-02-13T13:32:22;103460.5;;;15.53;49.99805
59987;BME280;46181;51.498;5.392;2023-02-13T13:36:53;103453;;;15.5;50.04199
59987;BME280;46181;51.498;5.392;2023-02-13T13:41:25;103446.9;;;15.51;49.9043
59987;BME280;46181;51.498;5.392;2023-02-13T13:45:56;103444.1;;;15.52;49.67773
59987;BME280;46181;51.498;5.392;2023-02-13T13:50:27;103437.2;;;15.49;49.61719
59987;BME280;46181;51.498;5.392;2023-02-13T13:54:51;103435.5;;;15.54;49.41699
59987;BME280;46181;51.498;5.392;2023-02-13T14:03:52;103429.2;;;15.55;49.60156
59987;BME280;46181;51.498;5.392;2023-02-13T14:12:55;103424.5;;;15.48;49.57031
59987;BME280;46181;51.498;5.392;2023-02-13T14:21:50;103420.2;;;15.51;49.48242
59987;BME280;46181;51.498;5.392;2023-02-13T14:26:37;103414.2;;;15.47;49.58105
59987;BME280;46181;51.498;5.392;2023-02-13T14:30:50;103412.1;;;15.54;49.51953
59987;BME280;46181;51.498;5.392;2023-02-13T14:35:29;103409.1;;;15.49;49.59473
59987;BME280;46181;51.498;5.392;2023-02-13T14:44:25;103412.2;;;15.51;49.58496
59987;BME280;46181;51.498;5.392;2023-02-13T14:48:55;103412.7;;;15.51;49.45996
59987;BME280;46181;51.498;5.392;2023-02-13T14:53:25;103409.1;;;15.52;49.63281
59987;BME280;46181;51.498;5.392;2023-02-13T14:57:52;103401.9;;;15.55;49.41895
59987;BME280;46181;51.498;5.392;2023-02-13T15:02:27;103400.6;;;15.51;49.41406
59987;BME280;46181;51.498;5.392;2023-02-13T15:06:52;103400.6;;;15.51;49.52832
59987;BME280;46181;51.498;5.392;2023-02-13T15:11:37;103396.8;;;15.5;49.57227
59987;BME280;46181;51.498;5.392;2023-02-13T15:15:53;103389.4;;;15.43;49.64453
59987;BME280;46181;51.498;5.392;2023-02-13T15:20:33;103386.6;;;15.33;49.79395
59987;BME280;46181;51.498;5.392;2023-02-13T15:24:52;103387.2;;;15.39;49.78809
59987;BME280;46181;51.498;5.392;2023-02-13T15:29:26;103383.1;;;15.34;49.875
59987;BME280;46181;51.498;5.392;2023-02-13T15:33:55;103378.3;;;15.35;49.68164
59987;BME280;46181;51.498;5.392;2023-02-13T15:38:33;103372.1;;;15.3;49.57324
59987;BME280;46181;51.498;5.392;2023-02-13T15:42:50;103374;;;15.34;49.50879
59987;BME280;46181;51.498;5.392;2023-02-13T15:47:25;103376.6;;;15.31;49.5752
59987;BME280;46181;51.498;5.392;2023-02-13T15:52:02;103372.8;;;15.32;49.58691
59987;BME280;46181;51.498;5.392;2023-02-13T15:56:24;103372.1;;;15.25;49.71582
59987;BME280;46181;51.498;5.392;2023-02-13T16:00:51;103367.3;;;15.27;49.59277
59987;BME280;46181;51.498;5.392;2023-02-13T16:05:22;103370.1;;;15.2;49.69922
59987;BME280;46181;51.498;5.392;2023-02-13T16:09:50;103367.3;;;15.14;49.77246
59987;BME280;46181;51.498;5.392;2023-02-13T16:14:24;103364.3;;;15.06;49.91211
59987;BME280;46181;51.498;5.392;2023-02-13T16:18:51;103363;;;15.03;49.79395
59987;BME280;46181;51.498;5.392;2023-02-13T16:23:27;103364.1;;;14.92;49.89453
59987;BME280;46181;51.498;5.392;2023-02-13T16:27:54;103372;;;14.89;49.82324
59987;BME280;46181;51.498;5.392;2023-02-13T16:32:29;103369.5;;;14.78;49.94824
59987;BME280;46181;51.498;5.392;2023-02-13T16:36:50;103367.5;;;14.74;49.95508
59987;BME280;46181;51.498;5.392;2023-02-13T16:41:38;103363.3;;;14.52;50.37305
59987;BME280;46181;51.498;5.392;2023-02-13T16:45:50;103370.7;;;14.56;50.31055
59987;BME280;46181;51.498;5.392;2023-02-13T16:50:24;103373.9;;;14.43;50.4082
59987;BME280;46181;51.498;5.392;2023-02-13T16:54:55;103376.2;;;14.36;50.61719
59987;BME280;46181;51.498;5.392;2023-02-13T16:59:29;103380.3;;;14.18;50.8584
59987;BME280;46181;51.498;5.392;2023-02-13T17:03:50;103380.3;;;14.15;51.04785
59987;BME280;46181;51.498;5.392;2023-02-13T17:08:20;103378.5;;;14.01;51.54395
59987;BME280;46181;51.498;5.392;2023-02-13T17:12:51;103380.2;;;13.87;51.87891
59987;BME280;46181;51.498;5.392;2023-02-13T17:17:25;103379.9;;;13.7;52.17773
59987;BME280;46181;51.498;5.392;2023-02-13T17:21:50;103382;;;13.6;52.57422
59987;BME280;46181;51.498;5.392;2023-02-13T17:26:20;103386.6;;;13.49;52.84375
59987;BME280;46181;51.498;5.392;2023-02-13T17:30:51;103386.8;;;13.39;53.27539
59987;BME280;46181;51.498;5.392;2023-02-13T17:35:22;103383;;;13.28;53.46484
59987;BME280;46181;51.498;5.392;2023-02-13T17:39:50;103382.9;;;13.19;53.64844
59987;BME280;46181;51.498;5.392;2023-02-13T17:44:21;103388.9;;;13.11;54.0127
59987;BME280;46181;51.498;5.392;2023-02-13T17:48:50;103387.3;;;13.02;54.11426
59987;BME280;46181;51.498;5.392;2023-02-13T17:53:27;103390.6;;;12.88;54.43652
59987;BME280;46181;51.498;5.392;2023-02-13T17:57:51;103392.1;;;12.81;54.35938
59987;BME280;46181;51.498;5.392;2023-02-13T18:02:23;103391.4;;;12.69;54.61621
59987;BME280;46181;51.498;5.392;2023-02-13T18:06:53;103389.1;;;12.63;54.8125
59987;BME280;46181;51.498;5.392;2023-02-13T18:11:21;103392;;;12.56;55.05273
59987;BME280;46181;51.498;5.392;2023-02-13T18:15:51;103391.9;;;12.48;55.37207
59987;BME280;46181;51.498;5.392;2023-02-13T18:20:22;103387.8;;;12.41;55.54395
59987;BME280;46181;51.498;5.392;2023-02-13T18:24:50;103391;;;12.37;55.74316
59987;BME280;46181;51.498;5.392;2023-02-13T18:29:21;103386.7;;;12.32;55.70215
59987;BME280;46181;51.498;5.392;2023-02-13T18:33:50;103387.6;;;12.26;55.9668
59987;BME280;46181;51.498;5.392;2023-02-13T18:38:20;103392.4;;;12.22;56.07422
59987;BME280;46181;51.498;5.392;2023-02-13T18:42:50;103386.2;;;12.19;56.07031
59987;BME280;46181;51.498;5.392;2023-02-13T18:47:20;103385.5;;;12.14;56.24414
59987;BME280;46181;51.498;5.392;2023-02-13T18:51:51;103379.7;;;12.09;56.4082
59987;BME280;46181;51.498;5.392;2023-02-13T18:56:21;103383.4;;;12.05;56.63965
59987;BME280;46181;51.498;5.392;2023-02-13T19:00:50;103381.1;;;12.01;56.80469
59987;BME280;46181;51.498;5.392;2023-02-13T19:05:20;103380;;;11.97;56.85547
59987;BME280;46181;51.498;5.392;2023-02-13T19:09:50;103379.8;;;11.9;56.95996
59987;BME280;46181;51.498;5.392;2023-02-13T19:14:21;103375.5;;;11.84;57.15527
59987;BME280;46181;51.498;5.392;2023-02-13T19:18:52;103378.6;;;11.84;57.40234
59987;BME280;46181;51.498;5.392;2023-02-13T19:23:20;103377.5;;;11.82;57.62695
59987;BME280;46181;51.498;5.392;2023-02-13T19:27:50;103377.2;;;11.78;57.72266
59987;BME280;46181;51.498;5.392;2023-02-13T19:32:21;103376.7;;;11.76;57.83301
59987;BME280;46181;51.498;5.392;2023-02-13T19:36:50;103385.3;;;11.71;57.71289
59987;BME280;46181;51.498;5.392;2023-02-13T19:41:22;103381.7;;;11.58;57.73047
59987;BME280;46181;51.498;5.392;2023-02-13T19:45:50;103382.9;;;11.52;57.75586
59987;BME280;46181;51.498;5.392;2023-02-13T19:50:21;103384.2;;;11.43;57.73145
59987;BME280;46181;51.498;5.392;2023-02-13T19:54:50;103385.6;;;11.33;57.73047
59987;BME280;46181;51.498;5.392;2023-02-13T19:59:21;103379.1;;;11.22;57.78418
59987;BME280;46181;51.498;5.392;2023-02-13T20:03:51;103377.1;;;11.15;57.89746
59987;BME280;46181;51.498;5.392;2023-02-13T20:08:21;103379.8;;;11.07;57.89941
59987;BME280;46181;51.498;5.392;2023-02-13T20:12:50;103378.8;;;11.03;57.98438
59987;BME280;46181;51.498;5.392;2023-02-13T20:17:20;103382.6;;;10.94;58.15332
59987;BME280;46181;51.498;5.392;2023-02-13T20:21:51;103391.1;;;10.9;58.21484
59987;BME280;46181;51.498;5.392;2023-02-13T20:26:21;103387.2;;;10.83;58.21777
59987;BME280;46181;51.498;5.392;2023-02-13T20:30:52;103390.3;;;10.77;58.28906
59987;BME280;46181;51.498;5.392;2023-02-13T20:35:21;103388.8;;;10.74;58.19336
59987;BME280;46181;51.498;5.392;2023-02-13T20:39:50;103383.2;;;10.65;58.2832
59987;BME280;46181;51.498;5.392;2023-02-13T20:44:22;103378.8;;;10.59;58.33008
59987;BME280;46181;51.498;5.392;2023-02-13T20:48:52;103378.1;;;10.51;58.36523
59987;BME280;46181;51.498;5.392;2023-02-13T20:53:20;103377.1;;;10.46;58.37109
59987;BME280;46181;51.498;5.392;2023-02-13T20:57:50;103379.8;;;10.42;58.54492
59987;BME280;46181;51.498;5.392;2023-02-13T21:02:21;103374.8;;;10.36;58.51465
59987;BME280;46181;51.498;5.392;2023-02-13T21:06:50;103382.8;;;10.31;58.54102
59987;BME280;46181;51.498;5.392;2023-02-13T21:11:21;103380;;;10.25;58.66797
59987;BME280;46181;51.498;5.392;2023-02-13T21:15:50;103384.1;;;10.23;58.82422
59987;BME280;46181;51.498;5.392;2023-02-13T21:20:21;103383.6;;;10.2;58.7168
59987;BME280;46181;51.498;5.392;2023-02-13T21:24:51;103391.6;;;10.15;58.71094
59987;BME280;46181;51.498;5.392;2023-02-13T21:29:21;103391.8;;;10.09;58.83691
59987;BME280;46181;51.498;5.392;2023-02-13T21:33:51;103389.2;;;10.03;58.88477
59987;BME280;46181;51.498;5.392;2023-02-13T21:38:21;103392.9;;;9.95;58.94238
59987;BME280;46181;51.498;5.392;2023-02-13T21:42:50;103396.1;;;9.9;58.99121
59987;BME280;46181;51.498;5.392;2023-02-13T21:47:20;103394.7;;;9.88;59.02344
59987;BME280;46181;51.498;5.392;2023-02-13T21:51:51;103395.9;;;9.82;58.98145
59987;BME280;46181;51.498;5.392;2023-02-13T21:56:22;103389.1;;;9.72;58.95605
59987;BME280;46181;51.498;5.392;2023-02-13T22:00:51;103388.9;;;9.69;58.9873
59987;BME280;46181;51.498;5.392;2023-02-13T22:05:21;103390.9;;;9.64;58.98926
59987;BME280;46181;51.498;5.392;2023-02-13T22:09:52;103386;;;9.58;59.07227
59987;BME280;46181;51.498;5.392;2023-02-13T22:14:23;103382.3;;;9.53;59.17676
59987;BME280;46181;51.498;5.392;2023-02-13T22:18:51;103381.6;;;9.47;58.99023
59987;BME280;46181;51.498;5.392;2023-02-13T22:23:21;103378.7;;;9.41;59.00391
59987;BME280;46181;51.498;5.392;2023-02-13T22:27:53;103378.4;;;9.32;58.96973
59987;BME280;46181;51.498;5.392;2023-02-13T22:32:21;103377;;;9.25;58.9707
59987;BME280;46181;51.498;5.392;2023-02-13T22:36:51;103375.6;;;9.21;59.0332
59987;BME280;46181;51.498;5.392;2023-02-13T22:41:22;103382.4;;;9.14;59.12402
59987;BME280;46181;51.498;5.392;2023-02-13T22:45:51;103378.3;;;9.09;59.09473
59987;BME280;46181;51.498;5.392;2023-02-13T22:50:21;103377.8;;;9.05;59.10059
59987;BME280;46181;51.498;5.392;2023-02-13T22:54:51;103369;;;8.98;59.18262
59987;BME280;46181;51.498;5.392;2023-02-13T22:59:21;103366.3;;;8.94;59.1875
59987;BME280;46181;51.498;5.392;2023-02-13T23:03:51;103363.8;;;8.9;59.16992
59987;BME280;46181;51.498;5.392;2023-02-13T23:08:21;103366.7;;;8.83;59.10547
59987;BME280;46181;51.498;5.392;2023-02-13T23:12:51;103364.4;;;8.79;59.21094
59987;BME280;46181;51.498;5.392;2023-02-13T23:17:21;103366.6;;;8.76;59.27344
59987;BME280;46181;51.498;5.392;2023-02-13T23:21:51;103359;;;8.72;59.20117
59987;BME280;46181;51.498;5.392;2023-02-13T23:26:21;103356.3;;;8.65;59.2041
59987;BME280;46181;51.498;5.392;2023-02-13T23:30:51;103358.9;;;8.6;59.23047
59987;BME280;46181;51.498;5.392;2023-02-13T23:35:21;103362;;;8.56;59.35938
59987;BME280;46181;51.498;5.392;2023-02-13T23:39:51;103363;;;8.54;59.36719
59987;BME280;46181;51.498;5.392;2023-02-13T23:44:21;103360.9;;;8.49;59.36133